Terminal Aerodrome Forecast
Issued by NWS

Home | Current Version | Previous Version | Text Only | Print | Product List | Glossary Off
Versions: 1 2 3 4 5 6 7 8 9 10 11 12 13 14 15

000
FTUS43 KBIS 201124
TAFMOT
TAF
KMOT 201124Z 2012/2112 28007KT 3SM -SN OVC045
     FM201400 27009KT P6SM VCSH BKN060
     FM201800 26012G20KT P6SM BKN070
     FM210100 25009KT P6SM SCT150=

USA.gov is the U.S. government's official web portal to all federal, state and local government web resources and services.